Time;durP1;ratioP1;P1;durP2;ratioP2;P2;SDS_P1;SDS_P2;PMS_P1;PMS_P2;Temp;Humidity;BMP_temperature;BMP_pressure;BME280_temperature;BME280_humidity;BME280_pressure;Samples;Min_cycle;Max_cycle;Signal;HPM_P1;HPM_P2
2023/09/16 00:01:20;;;;;;;4.85;4.45;;;;;;;20.16;58.06;97001.50;4902060;28;20699;-85
2023/09/16 00:03:47;;;;;;;5.28;4.75;;;;;;;20.23;58.31;96997.63;4951576;28;20034;-84
2023/09/16 00:06:12;;;;;;;4.45;4.13;;;;;;;20.09;57.96;96984.56;4950784;28;20299;-84
2023/09/16 00:08:38;;;;;;;5.78;4.30;;;;;;;20.25;58.53;97001.50;4930478;28;20034;-84
2023/09/16 00:11:04;;;;;;;5.32;4.82;;;;;;;20.18;58.39;96999.31;4948880;28;20486;-83
2023/09/16 00:13:29;;;;;;;4.57;4.18;;;;;;;20.25;58.27;97009.44;4978456;28;20170;-83
2023/09/16 00:15:54;;;;;;;5.57;5.00;;;;;;;20.13;58.39;96988.13;4939063;28;20088;-84
2023/09/16 00:18:20;;;;;;;6.47;5.22;;;;;;;20.10;58.98;96989.53;4965781;28;20052;-83
2023/09/16 00:20:49;;;;;;;5.93;4.88;;;;;;;20.07;58.56;96987.50;4949932;28;20178;-83
2023/09/16 00:23:15;;;;;;;5.60;5.05;;;;;;;20.04;59.07;96977.56;4943403;28;20186;-83
2023/09/16 00:25:41;;;;;;;5.25;4.75;;;;;;;20.16;58.56;96993.56;4930913;28;20372;-84
2023/09/16 00:28:07;;;;;;;5.95;5.38;;;;;;;20.09;58.61;96995.13;4936783;28;20199;-84
2023/09/16 00:30:33;;;;;;;5.15;4.65;;;;;;;20.07;58.95;96981.47;4933509;28;20282;-84
2023/09/16 00:33:05;;;;;;;5.72;5.22;;;;;;;20.21;58.74;97003.22;4957969;28;20037;-84
2023/09/16 00:35:31;;;;;;;6.20;5.30;;;;;;;20.01;58.89;96976.31;4959021;28;20049;-84
2023/09/16 00:37:56;;;;;;;5.00;4.50;;;;;;;19.96;58.38;96975.69;4945728;28;20030;-84
2023/09/16 00:40:22;;;;;;;4.82;4.30;;;;;;;20.13;58.42;97001.34;4937527;28;20030;-84
2023/09/16 00:42:47;;;;;;;5.72;5.00;;;;;;;20.09;58.61;96993.25;4960006;28;20625;-84
2023/09/16 00:45:14;;;;;;;5.30;4.72;;;;;;;19.94;58.76;96972.56;4912246;28;20218;-85
2023/09/16 00:47:42;;;;;;;5.13;4.63;;;;;;;19.93;59.04;96985.03;4910454;28;20107;-84
2023/09/16 00:50:09;;;;;;;4.93;4.45;;;;;;;19.98;58.42;96997.28;4914397;28;20289;-84
2023/09/16 00:52:37;;;;;;;4.57;4.18;;;;;;;19.92;58.51;96993.25;4894600;28;20242;-84
2023/09/16 00:55:03;;;;;;;5.70;4.80;;;;;;;19.78;58.74;96985.47;4918204;28;20232;-84
2023/09/16 00:57:29;;;;;;;4.63;4.22;;;;;;;19.81;58.55;96990.13;4914868;28;20612;-84
2023/09/16 00:59:55;;;;;;;5.30;4.80;;;;;;;19.68;58.86;96975.94;4908409;28;20180;-84
2023/09/16 01:02:20;;;;;;;5.50;4.95;;;;;;;19.61;59.71;96973.75;4914495;28;20342;-84
2023/09/16 01:04:46;;;;;;;5.85;5.13;;;;;;;19.71;59.40;96990.41;4899825;28;20092;-85
2023/09/16 01:07:14;;;;;;;6.20;4.80;;;;;;;19.59;59.10;96975.16;4912754;28;20701;-84
2023/09/16 01:09:40;;;;;;;5.35;4.80;;;;;;;19.54;60.00;96978.69;4918942;28;20112;-84
2023/09/16 01:12:07;;;;;;;5.97;5.40;;;;;;;19.54;59.36;96981.34;4909151;28;20162;-84
2023/09/16 01:14:33;;;;;;;5.43;4.93;;;;;;;19.58;59.66;97000.75;4896923;28;20193;-84
2023/09/16 01:17:27;;;;;;;5.35;4.85;;;;;;;19.68;60.02;97004.22;4932021;28;20228;-84
2023/09/16 01:20:13;;;;;;;5.15;4.65;;;;;;;19.57;59.73;96986.03;4909077;28;20209;-84
2023/09/16 01:22:44;;;;;;;5.97;5.40;;;;;;;19.53;59.90;96998.25;4910207;28;20973;-84
2023/09/16 01:25:10;;;;;;;5.95;4.80;;;;;;;19.62;59.26;97003.56;4895371;28;20260;-84
2023/09/16 01:27:37;;;;;;;5.65;4.95;;;;;;;19.50;59.41;96998.91;4902044;28;20213;-84
2023/09/16 01:30:05;;;;;;;5.38;4.88;;;;;;;19.53;59.38;97005.41;4905430;28;20284;-84
2023/09/16 01:32:54;;;;;;;5.80;5.20;;;;;;;19.58;60.32;97003.41;4918106;28;20154;-84
2023/09/16 01:35:21;;;;;;;6.57;5.55;;;;;;;19.41;59.90;97006.75;4921053;28;20382;-84
2023/09/16 01:37:47;;;;;;;6.15;5.13;;;;;;;19.27;60.08;96993.69;4896585;28;20159;-84
2023/09/16 01:40:14;;;;;;;5.70;5.20;;;;;;;19.26;59.98;96984.22;4902286;28;20181;-84
2023/09/16 01:42:40;;;;;;;6.78;5.80;;;;;;;19.34;60.46;97011.72;4907202;28;20192;-84
2023/09/16 01:45:07;;;;;;;5.75;5.10;;;;;;;19.34;60.01;97003.03;4895327;28;20110;-84
2023/09/16 01:47:32;;;;;;;6.85;5.97;;;;;;;19.28;60.29;96995.25;4898188;28;20179;-84
2023/09/16 01:49:58;;;;;;;6.30;5.60;;;;;;;19.24;60.37;97010.16;4918333;28;20635;-84
2023/09/16 01:52:23;;;;;;;6.15;5.22;;;;;;;19.14;60.43;97002.50;4913482;28;20287;-84
2023/09/16 01:54:49;;;;;;;6.38;5.78;;;;;;;19.08;60.28;97006.34;4943553;28;20186;-83
2023/09/16 01:57:14;;;;;;;5.78;5.18;;;;;;;19.04;60.68;97003.53;4925291;28;20049;-83
2023/09/16 01:59:39;;;;;;;5.53;5.03;;;;;;;18.94;60.90;96987.97;4939983;28;20269;-84
2023/09/16 02:02:05;;;;;;;7.00;5.13;;;;;;;19.09;61.25;97013.94;4942713;28;20161;-83
2023/09/16 02:04:30;;;;;;;6.25;5.65;;;;;;;19.06;61.06;97004.00;4940593;28;20053;-83
2023/09/16 02:06:56;;;;;;;5.90;5.30;;;;;;;19.12;61.01;97009.16;4954360;28;20116;-83
2023/09/16 02:09:21;;;;;;;6.40;5.80;;;;;;;19.00;60.54;96989.38;4972784;28;20049;-83
2023/09/16 02:11:46;;;;;;;6.15;4.95;;;;;;;19.11;61.02;97005.72;4938015;28;20062;-82
2023/09/16 02:14:19;;;;;;;6.85;6.07;;;;;;;19.15;61.46;97011.94;4959613;28;20591;-83
2023/09/16 02:16:45;;;;;;;6.57;5.75;;;;;;;19.07;60.86;97010.84;4968529;28;20304;-83
2023/09/16 02:19:11;;;;;;;6.32;5.68;;;;;;;19.02;60.65;97003.06;4985446;28;20139;-83
2023/09/16 02:21:37;;;;;;;6.72;5.10;;;;;;;19.03;61.30;96995.91;4976602;28;20258;-83
2023/09/16 02:24:04;;;;;;;6.80;6.10;;;;;;;18.95;61.60;96992.13;4947478;28;20037;-84
2023/09/16 02:26:30;;;;;;;7.32;6.00;;;;;;;18.99;61.12;97008.94;4915795;28;20279;-83
2023/09/16 02:28:55;;;;;;;7.15;5.80;;;;;;;19.08;61.27;97028.22;4917266;28;20276;-83
2023/09/16 02:31:27;;;;;;;5.95;5.35;;;;;;;19.05;61.07;97018.25;4901013;28;21282;-83
2023/09/16 02:33:57;;;;;;;6.50;5.88;;;;;;;19.02;61.39;97020.72;4912643;28;20208;-83
2023/09/16 02:36:23;;;;;;;6.65;6.00;;;;;;;18.92;61.30;97019.16;4919042;28;20640;-84
2023/09/16 02:38:48;;;;;;;6.57;5.93;;;;;;;18.82;61.10;97008.81;4923183;28;20212;-84
2023/09/16 02:41:17;;;;;;;7.00;6.30;;;;;;;18.90;61.63;97027.34;4926018;28;20221;-83
2023/09/16 02:43:49;;;;;;;8.13;6.30;;;;;;;18.97;60.87;97029.56;4918033;28;20665;-84
2023/09/16 02:46:15;;;;;;;7.22;6.50;;;;;;;18.92;61.34;97028.91;4910565;28;20171;-83
2023/09/16 02:48:40;;;;;;;6.75;6.05;;;;;;;18.90;61.12;97024.72;4915882;28;20244;-84
2023/09/16 02:51:09;;;;;;;6.45;5.50;;;;;;;18.88;61.97;97032.16;4913150;28;20690;-83
2023/09/16 02:53:36;;;;;;;6.65;5.90;;;;;;;18.87;61.40;97029.81;4894190;28;20132;-84
2023/09/16 02:56:02;;;;;;;6.25;5.65;;;;;;;18.78;61.60;97024.47;4907182;28;20327;-85
2023/09/16 02:58:28;;;;;;;6.38;5.75;;;;;;;18.79;61.42;97026.00;4919350;28;20255;-84
2023/09/16 03:00:54;;;;;;;6.68;5.90;;;;;;;18.74;61.44;97020.09;4912535;28;20037;-84
2023/09/16 03:03:19;;;;;;;6.80;6.10;;;;;;;18.76;61.37;97023.97;4931862;28;20236;-84
2023/09/16 03:05:45;;;;;;;6.90;5.97;;;;;;;18.76;61.38;97026.59;4951373;28;20551;-84
2023/09/16 03:08:14;;;;;;;6.55;5.80;;;;;;;18.76;61.10;97028.47;4937289;28;20494;-86
2023/09/16 03:10:40;;;;;;;6.60;5.93;;;;;;;18.69;61.36;97016.47;4926705;28;20212;-83
2023/09/16 03:13:06;;;;;;;6.70;5.90;;;;;;;18.72;61.54;97023.03;4941005;28;20292;-84
2023/09/16 03:15:31;;;;;;;7.43;6.50;;;;;;;18.72;61.79;97023.03;4911356;28;20099;-84
2023/09/16 03:17:57;;;;;;;6.82;6.13;;;;;;;18.72;61.68;97020.38;4901440;28;20699;-86
2023/09/16 03:20:22;;;;;;;7.07;6.30;;;;;;;18.49;61.29;96988.75;4954538;28;20249;-84
2023/09/16 03:22:48;;;;;;;6.70;6.00;;;;;;;18.65;61.46;97020.03;4919054;28;20234;-83
2023/09/16 03:25:14;;;;;;;7.35;6.60;;;;;;;18.67;61.34;97018.63;4911834;28;20107;-85
2023/09/16 03:27:39;;;;;;;5.95;5.13;;;;;;;18.66;61.89;97018.94;4925448;28;20523;-85
2023/09/16 03:30:05;;;;;;;6.85;5.47;;;;;;;18.59;62.11;97015.94;4910416;28;20601;-85
2023/09/16 03:32:31;;;;;;;5.65;5.05;;;;;;;18.49;62.06;96999.31;4924283;28;20678;-85
2023/09/16 03:34:56;;;;;;;6.47;5.32;;;;;;;18.57;61.54;97007.56;4925576;28;20034;-84
2023/09/16 03:37:22;;;;;;;6.68;5.80;;;;;;;18.56;61.75;97006.78;4929544;28;20303;-83
2023/09/16 03:39:47;;;;;;;7.15;6.45;;;;;;;18.56;61.80;97001.53;4932756;28;20345;-84
2023/09/16 03:42:15;;;;;;;6.85;5.78;;;;;;;18.57;61.51;96997.78;4930092;28;20185;-83
2023/09/16 03:44:42;;;;;;;7.35;6.55;;;;;;;18.57;61.88;96997.00;4901276;28;20106;-83
2023/09/16 03:47:10;;;;;;;7.18;6.43;;;;;;;18.45;61.67;96984.38;4918160;28;20278;-83
2023/09/16 03:49:36;;;;;;;7.28;6.57;;;;;;;18.51;62.02;96999.78;4899712;28;20197;-83
2023/09/16 03:52:02;;;;;;;6.40;5.75;;;;;;;18.38;61.88;96976.09;4918445;28;20212;-83
2023/09/16 03:54:27;;;;;;;6.78;5.68;;;;;;;18.50;62.04;96987.66;4932873;28;20200;-83
2023/09/16 03:56:53;;;;;;;7.55;6.32;;;;;;;18.44;61.89;96986.25;4903699;28;20243;-84
2023/09/16 03:59:18;;;;;;;7.82;6.55;;;;;;;18.30;61.80;96965.22;4910493;28;20111;-83
2023/09/16 04:01:44;;;;;;;7.57;6.78;;;;;;;18.39;61.38;96983.72;4904686;28;20575;-84
2023/09/16 04:04:09;;;;;;;7.00;6.28;;;;;;;18.36;61.88;96978.28;4915150;28;20213;-84
2023/09/16 04:06:35;;;;;;;7.05;6.35;;;;;;;18.41;62.18;96981.56;4912155;28;20263;-83
2023/09/16 04:09:00;;;;;;;6.82;6.13;;;;;;;18.31;61.96;96971.25;4909034;28;20256;-83
2023/09/16 04:11:27;;;;;;;7.07;6.20;;;;;;;18.29;62.05;96976.03;4909901;28;20300;-84
2023/09/16 04:13:53;;;;;;;7.10;6.40;;;;;;;18.26;61.63;96968.72;4916618;28;20216;-85
2023/09/16 04:16:18;;;;;;;7.28;6.40;;;;;;;18.29;61.92;96979.47;4954435;28;20041;-83
2023/09/16 04:18:44;;;;;;;7.68;6.10;;;;;;;18.11;61.90;96954.03;4962936;28;20042;-85
2023/09/16 04:21:09;;;;;;;7.45;6.57;;;;;;;17.99;62.33;96953.78;4968416;28;20111;-83
2023/09/16 04:23:37;;;;;;;5.63;5.10;;;;;;;18.08;61.98;96970.47;4968964;28;20481;-83
2023/09/16 04:26:05;;;;;;;7.32;6.60;;;;;;;17.94;61.86;96949.41;4974283;28;20030;-85
2023/09/16 04:28:30;;;;;;;6.70;6.10;;;;;;;18.01;62.07;96965.59;4952556;28;20022;-83
2023/09/16 04:30:56;;;;;;;6.72;6.03;;;;;;;17.96;61.90;96950.69;4956119;28;20700;-83
2023/09/16 04:33:21;;;;;;;6.60;5.93;;;;;;;18.11;61.73;96977.75;4965765;28;20096;-83
2023/09/16 04:35:48;;;;;;;6.60;6.00;;;;;;;18.01;61.42;96952.44;4976923;28;20085;-83
2023/09/16 04:38:15;;;;;;;7.40;6.60;;;;;;;17.97;61.80;96959.34;4966415;28;20184;-83
2023/09/16 04:40:42;;;;;;;8.48;7.32;;;;;;;18.04;62.01;96958.94;4959279;28;20258;-85
2023/09/16 04:43:07;;;;;;;7.88;7.07;;;;;;;17.95;61.90;96946.47;4961493;28;20030;-85
2023/09/16 04:45:32;;;;;;;8.45;7.22;;;;;;;18.01;61.72;96960.34;4939096;28;20449;-83
2023/09/16 04:47:58;;;;;;;8.65;7.53;;;;;;;17.99;61.80;96959.84;4956328;28;20568;-83
2023/09/16 04:50:25;;;;;;;7.30;6.22;;;;;;;18.03;61.72;96974.00;4938554;28;20289;-84
2023/09/16 04:52:50;;;;;;;6.57;5.97;;;;;;;17.83;61.23;96948.84;4933142;28;20237;-84
2023/09/16 04:55:16;;;;;;;7.20;6.07;;;;;;;17.84;61.47;96957.50;4951225;28;20470;-83
2023/09/16 04:57:41;;;;;;;6.95;6.25;;;;;;;17.84;61.96;96946.97;4962145;28;20505;-83
2023/09/16 05:00:07;;;;;;;7.40;6.50;;;;;;;17.90;62.04;96959.00;4956065;28;20106;-85
2023/09/16 05:02:33;;;;;;;7.55;6.68;;;;;;;17.84;61.79;96950.41;4979355;28;20041;-83
2023/09/16 05:05:00;;;;;;;9.43;7.07;;;;;;;17.93;61.74;96961.81;4956358;28;20030;-83
2023/09/16 05:07:25;;;;;;;7.57;6.78;;;;;;;17.90;62.55;96959.75;4973715;28;20040;-83
2023/09/16 05:09:51;;;;;;;7.05;5.60;;;;;;;17.90;62.21;96957.13;4968959;28;20113;-84
2023/09/16 05:12:16;;;;;;;7.03;5.70;;;;;;;17.89;62.15;96957.41;4951169;28;20035;-85
2023/09/16 05:14:42;;;;;;;6.95;5.88;;;;;;;17.93;62.19;96966.31;4972504;28;20037;-83
2023/09/16 05:17:07;;;;;;;6.30;5.68;;;;;;;17.76;62.28;96943.19;4963176;28;20462;-83
2023/09/16 05:19:33;;;;;;;6.75;6.05;;;;;;;17.81;62.11;96944.94;4972010;28;20453;-84
2023/09/16 05:21:58;;;;;;;6.80;6.10;;;;;;;17.88;62.56;96953.25;4956027;28;20072;-84
2023/09/16 05:24:24;;;;;;;7.32;6.53;;;;;;;17.93;62.14;96955.78;4950653;28;20269;-85
2023/09/16 05:26:49;;;;;;;7.72;6.90;;;;;;;17.99;62.68;96965.09;4897811;28;20171;-86
2023/09/16 05:29:15;;;;;;;7.05;6.35;;;;;;;18.03;62.43;96968.72;4887153;28;20327;-85
2023/09/16 05:31:40;;;;;;;6.97;6.28;;;;;;;17.99;61.96;96967.72;4909633;28;20277;-85
2023/09/16 05:34:05;;;;;;;6.60;6.00;;;;;;;17.81;62.50;96942.31;4905981;28;20638;-86
2023/09/16 05:36:32;;;;;;;8.23;6.13;;;;;;;17.96;62.14;96957.81;4896841;28;20195;-85
2023/09/16 05:38:58;;;;;;;7.45;6.15;;;;;;;18.00;62.21;96963.28;4915900;28;20205;-85
2023/09/16 05:41:23;;;;;;;7.10;6.40;;;;;;;18.03;62.21;96962.69;4912451;28;20279;-85
2023/09/16 05:43:48;;;;;;;7.22;5.97;;;;;;;18.06;62.28;96960.22;4926114;28;20528;-86
2023/09/16 05:46:15;;;;;;;7.95;6.93;;;;;;;18.11;62.39;96970.66;4919747;28;20216;-85
2023/09/16 05:48:41;;;;;;;7.03;6.32;;;;;;;18.18;62.50;96970.25;4893899;28;20209;-85
2023/09/16 05:51:08;;;;;;;7.13;6.35;;;;;;;18.07;62.64;96947.81;4899367;28;20281;-86
2023/09/16 05:53:33;;;;;;;7.60;6.43;;;;;;;18.05;62.64;96953.38;4934967;28;20072;-85
2023/09/16 05:56:04;;;;;;;7.78;6.95;;;;;;;18.22;62.91;96965.16;4938789;28;20305;-85
2023/09/16 05:58:30;;;;;;;8.07;6.93;;;;;;;18.26;63.49;96974.00;4954994;28;20437;-85
2023/09/16 06:00:56;;;;;;;7.63;6.80;;;;;;;18.20;62.82;96952.28;4923051;28;20201;-84
2023/09/16 06:03:22;;;;;;;9.02;7.50;;;;;;;18.49;63.17;96983.47;4891846;28;20179;-85
2023/09/16 06:05:47;;;;;;;7.63;6.82;;;;;;;18.47;63.20;96976.94;4924053;28;20189;-85
2023/09/16 06:08:13;;;;;;;7.68;6.60;;;;;;;18.62;63.15;96983.72;4921368;28;20213;-84
2023/09/16 06:10:39;;;;;;;9.35;7.85;;;;;;;18.66;63.59;96982.00;4903799;28;20265;-84
2023/09/16 06:13:07;;;;;;;8.98;7.40;;;;;;;18.55;62.90;96962.25;4912262;28;20099;-84
2023/09/16 06:15:32;;;;;;;8.13;7.32;;;;;;;18.70;62.78;96969.81;4932319;28;20136;-84
2023/09/16 06:17:58;;;;;;;7.13;6.43;;;;;;;18.88;62.24;96982.03;4913260;28;20170;-85
2023/09/16 06:20:23;;;;;;;7.57;6.80;;;;;;;19.07;62.36;96995.00;4894469;28;20284;-85
2023/09/16 06:22:48;;;;;;;8.13;6.63;;;;;;;19.08;62.09;96980.72;4911474;28;20456;-85
2023/09/16 06:25:14;;;;;;;8.27;7.47;;;;;;;19.21;62.85;96983.56;4905129;28;20425;-85
2023/09/16 06:27:42;;;;;;;9.63;6.80;;;;;;;19.35;62.07;96992.16;4911516;28;20218;-85
2023/09/16 06:30:08;;;;;;;9.25;8.25;;;;;;;19.37;62.72;96987.34;4892683;28;20367;-84
2023/09/16 06:32:33;;;;;;;9.77;8.77;;;;;;;19.44;63.15;96981.63;4909759;28;20232;-85
2023/09/16 06:34:58;;;;;;;10.13;8.95;;;;;;;19.57;63.10;96982.56;4942106;28;20199;-84
2023/09/16 06:37:24;;;;;;;10.15;7.70;;;;;;;19.71;63.24;96993.81;4922819;28;20166;-85
2023/09/16 06:39:49;;;;;;;8.68;7.78;;;;;;;19.77;62.71;96995.22;4917655;28;20223;-85
2023/09/16 06:42:15;;;;;;;8.38;7.57;;;;;;;19.86;63.07;96989.19;4909456;28;20203;-85
2023/09/16 06:44:40;;;;;;;8.15;7.35;;;;;;;19.90;62.19;96988.28;4934880;28;20198;-85
2023/09/16 06:47:05;;;;;;;9.45;8.07;;;;;;;19.97;62.43;96985.19;4913677;28;20391;-85
2023/09/16 06:49:31;;;;;;;8.45;7.57;;;;;;;20.01;62.23;96986.91;4913460;28;20213;-85
2023/09/16 06:51:56;;;;;;;8.65;7.75;;;;;;;20.08;61.70;96980.34;4932892;28;20193;-85
2023/09/16 06:54:22;;;;;;;7.72;6.95;;;;;;;20.21;61.44;96982.06;4930998;28;20158;-85
2023/09/16 06:56:47;;;;;;;8.90;7.78;;;;;;;20.34;61.40;96990.91;4919281;28;20162;-85
2023/09/16 06:59:13;;;;;;;9.32;7.85;;;;;;;20.29;61.83;96976.00;4902729;28;20308;-85
2023/09/16 07:01:38;;;;;;;9.45;8.48;;;;;;;20.40;61.74;96985.16;4920655;28;20196;-85
2023/09/16 07:04:04;;;;;;;8.20;7.40;;;;;;;20.51;61.89;96998.84;4904673;28;20042;-85
2023/09/16 07:06:29;;;;;;;7.97;7.22;;;;;;;20.68;61.07;96992.81;4917547;28;20269;-85
2023/09/16 07:08:55;;;;;;;7.80;6.68;;;;;;;20.83;60.90;96980.91;4923847;28;20061;-85
2023/09/16 07:11:20;;;;;;;6.95;6.18;;;;;;;21.09;60.39;96999.34;4936083;28;20174;-85
2023/09/16 07:13:45;;;;;;;7.13;6.43;;;;;;;21.25;59.74;97001.47;4906187;28;20649;-83
2023/09/16 07:16:12;;;;;;;7.75;6.93;;;;;;;21.45;59.50;97000.00;4932743;28;20212;-83
2023/09/16 07:18:37;;;;;;;8.38;7.45;;;;;;;21.52;59.31;96979.09;4924996;28;20486;-85
2023/09/16 07:21:03;;;;;;;8.27;7.47;;;;;;;21.75;58.71;96990.22;4908511;28;20192;-85
2023/09/16 07:23:29;;;;;;;7.50;6.70;;;;;;;21.98;58.97;97000.50;4904775;28;20254;-85
2023/09/16 07:25:56;;;;;;;7.47;6.78;;;;;;;22.15;58.67;96996.94;4920155;28;20757;-83
2023/09/16 07:28:22;;;;;;;8.38;7.57;;;;;;;22.21;58.36;97001.72;4923429;28;20121;-83
2023/09/16 07:30:47;;;;;;;7.53;6.82;;;;;;;22.33;57.40;97002.91;4928504;28;20118;-83
2023/09/16 07:33:13;;;;;;;7.63;6.85;;;;;;;22.38;57.24;96987.59;4905537;28;20341;-82
2023/09/16 07:35:38;;;;;;;6.80;6.20;;;;;;;22.77;56.97;97006.72;4931842;28;20049;-83
2023/09/16 07:38:03;;;;;;;7.50;6.80;;;;;;;22.90;55.86;97006.75;4902635;28;20296;-85
2023/09/16 07:40:32;;;;;;;7.05;6.35;;;;;;;23.05;56.06;97010.63;4922904;28;20201;-85
2023/09/16 07:43:00;;;;;;;7.00;6.40;;;;;;;23.37;55.56;97014.34;4894136;28;20565;-85
2023/09/16 07:45:26;;;;;;;7.03;6.35;;;;;;;23.48;55.19;97004.09;4891251;28;20701;-85
2023/09/16 07:47:52;;;;;;;6.57;5.97;;;;;;;23.52;54.50;97010.25;4895327;28;20316;-82
2023/09/16 07:50:18;;;;;;;6.93;5.93;;;;;;;23.63;54.16;97022.00;4907033;28;20219;-82
2023/09/16 07:52:44;;;;;;;6.45;5.85;;;;;;;23.91;53.58;97026.66;4914978;28;20634;-82
2023/09/16 07:55:09;;;;;;;7.13;6.43;;;;;;;24.07;53.22;97030.16;4910597;28;20670;-82
2023/09/16 07:57:34;;;;;;;6.57;5.97;;;;;;;24.27;53.16;97033.78;4899512;28;20201;-82
2023/09/16 08:00:00;;;;;;;6.72;6.13;;;;;;;24.22;53.25;97027.91;4911578;28;20161;-83
2023/09/16 08:02:25;;;;;;;6.97;6.25;;;;;;;24.45;52.83;97028.97;4934893;28;20197;-83
2023/09/16 08:04:51;;;;;;;7.50;6.80;;;;;;;24.67;52.41;97026.88;4909915;28;20710;-83
2023/09/16 08:07:16;;;;;;;6.85;6.25;;;;;;;24.68;52.33;97010.56;4907510;28;20159;-83
2023/09/16 08:09:42;;;;;;;6.88;6.25;;;;;;;24.99;51.61;97034.94;4915925;28;20519;-83
2023/09/16 08:12:07;;;;;;;6.70;6.00;;;;;;;25.08;51.59;97032.13;4894699;28;20084;-83
2023/09/16 08:14:33;;;;;;;6.68;5.97;;;;;;;25.18;51.11;97011.06;4933335;28;20211;-84
2023/09/16 08:17:02;;;;;;;6.63;6.03;;;;;;;25.52;50.63;97051.47;4938169;28;20030;-85
2023/09/16 08:19:28;;;;;;;6.70;6.00;;;;;;;25.61;50.25;97048.63;4929753;28;20197;-84
2023/09/16 08:21:53;;;;;;;6.70;6.10;;;;;;;25.69;49.78;97028.25;4923067;28;20670;-85
2023/09/16 08:24:19;;;;;;;6.30;5.80;;;;;;;25.79;49.48;97025.81;4940885;28;20034;-85
2023/09/16 08:26:44;;;;;;;6.60;6.03;;;;;;;26.17;49.44;97042.25;4946837;28;20085;-85
2023/09/16 08:29:10;;;;;;;6.30;5.80;;;;;;;26.16;49.18;97019.34;4909491;28;20702;-85
2023/09/16 08:31:35;;;;;;;6.30;5.70;;;;;;;26.33;49.25;97029.63;4923505;28;20272;-86
2023/09/16 08:34:03;;;;;;;7.70;7.00;;;;;;;26.35;49.00;97031.94;4907572;28;20222;-85
2023/09/16 08:36:29;;;;;;;8.77;6.53;;;;;;;26.45;49.05;97035.94;4924180;28;20574;-85
2023/09/16 08:38:54;;;;;;;6.65;6.15;;;;;;;26.66;48.83;97024.91;4895941;28;20259;-85
2023/09/16 08:41:38;;;;;;;6.18;5.68;;;;;;;26.88;48.61;97047.44;4933883;28;20216;-85
2023/09/16 08:44:05;;;;;;;7.03;6.53;;;;;;;27.21;48.14;97044.22;4922631;28;20177;-85
2023/09/16 08:46:33;;;;;;;6.20;5.70;;;;;;;27.39;47.93;97043.75;4915394;28;20471;-85
2023/09/16 08:49:08;;;;;;;6.00;5.35;;;;;;;27.39;47.54;97039.19;4957185;28;20195;-84
2023/09/16 08:51:35;;;;;;;6.18;5.68;;;;;;;27.41;47.69;97041.50;4958427;28;20247;-84
2023/09/16 08:54:04;;;;;;;6.60;5.93;;;;;;;27.56;46.84;97040.59;4933317;28;20189;-84
2023/09/16 08:56:30;;;;;;;6.30;5.80;;;;;;;27.81;46.92;97046.31;4925482;28;20163;-85
2023/09/16 08:58:56;;;;;;;6.85;6.25;;;;;;;27.96;46.96;97058.00;4903526;28;20186;-85
2023/09/16 09:01:21;;;;;;;6.47;5.97;;;;;;;28.09;47.02;97057.78;4912682;28;20372;-85
2023/09/16 09:03:47;;;;;;;6.32;5.72;;;;;;;28.29;46.43;97061.09;4921867;28;20244;-85
2023/09/16 09:06:13;;;;;;;6.25;5.75;;;;;;;28.37;45.92;97063.47;4910997;28;20682;-85
2023/09/16 09:08:38;;;;;;;6.35;5.85;;;;;;;28.54;45.74;97048.00;4901356;28;20179;-85
2023/09/16 09:11:04;;;;;;;6.25;5.75;;;;;;;28.73;46.17;97076.56;4928616;28;20279;-86
2023/09/16 09:13:29;;;;;;;6.47;5.63;;;;;;;28.85;44.77;97070.94;4912559;28;20292;-85
2023/09/16 09:15:59;;;;;;;6.15;5.63;;;;;;;29.07;43.45;97057.75;4908016;28;20300;-85
2023/09/16 09:18:25;;;;;;;5.97;5.47;;;;;;;29.26;43.35;97065.59;4911467;28;20217;-86
2023/09/16 09:20:51;;;;;;;6.28;5.55;;;;;;;29.19;43.45;97049.47;4888973;28;20157;-86
2023/09/16 09:23:16;;;;;;;6.00;5.47;;;;;;;29.64;43.00;97066.28;4901184;28;20205;-86
2023/09/16 09:25:42;;;;;;;5.47;5.07;;;;;;;29.60;43.62;97056.69;4978589;23;20049;-85
2023/09/16 09:28:07;;;;;;;6.20;5.70;;;;;;;29.62;43.44;97057.84;4957141;28;20270;-86
2023/09/16 09:30:33;;;;;;;5.53;5.13;;;;;;;29.62;43.13;97047.09;4989122;28;20344;-85
2023/09/16 09:32:59;;;;;;;5.78;5.28;;;;;;;29.19;43.89;97062.88;4968906;28;20217;-85
2023/09/16 09:35:29;;;;;;;5.95;5.45;;;;;;;29.43;43.93;97055.41;4944562;28;20037;-85
2023/09/16 09:37:55;;;;;;;6.47;5.93;;;;;;;29.86;43.44;97051.13;4973982;28;20246;-85
2023/09/16 09:40:21;;;;;;;6.60;6.00;;;;;;;29.53;44.33;97049.34;4970700;28;20509;-85
2023/09/16 09:42:48;;;;;;;5.90;5.40;;;;;;;29.56;44.08;97063.91;4967669;28;20176;-85
2023/09/16 09:45:15;;;;;;;5.93;5.43;;;;;;;29.60;44.07;97035.97;4955086;28;20040;-85
2023/09/16 09:47:41;;;;;;;6.15;5.60;;;;;;;30.02;43.41;97044.69;4987898;28;20033;-85
2023/09/16 09:50:11;;;;;;;6.00;5.60;;;;;;;30.16;43.49;97052.81;5001363;28;20644;-85
2023/09/16 09:52:36;;;;;;;5.72;5.22;;;;;;;30.17;42.71;97032.09;4955473;28;20192;-84
2023/09/16 09:55:02;;;;;;;6.03;5.63;;;;;;;30.15;42.11;97029.03;4952906;28;20110;-84
2023/09/16 09:57:27;;;;;;;5.93;5.43;;;;;;;30.15;41.93;97034.41;4942788;28;20203;-84
2023/09/16 09:59:55;;;;;;;6.07;5.53;;;;;;;30.41;42.46;97046.81;4917567;28;20830;-84
2023/09/16 10:02:25;;;;;;;6.05;5.45;;;;;;;30.42;42.64;97030.31;4936917;28;20047;-83
2023/09/16 10:05:05;;;;;;;5.88;5.38;;;;;;;30.77;41.72;97050.34;4932033;28;20247;-84
2023/09/16 10:07:33;;;;;;;5.63;5.20;;;;;;;30.75;41.46;97055.34;4917888;28;20185;-85
2023/09/16 10:09:59;;;;;;;6.00;5.60;;;;;;;30.81;40.91;97040.41;4918488;28;20211;-85
2023/09/16 10:12:24;;;;;;;7.75;5.55;;;;;;;30.91;41.23;97038.09;4890408;28;20250;-85
2023/09/16 10:14:53;;;;;;;5.72;5.32;;;;;;;30.86;40.36;97039.22;4904984;28;20363;-85
2023/09/16 10:17:21;;;;;;;5.55;5.05;;;;;;;30.99;40.43;97039.69;4891886;28;20213;-85
2023/09/16 10:19:47;;;;;;;6.80;5.25;;;;;;;30.76;41.55;97046.16;4930895;28;20079;-85
2023/09/16 10:22:13;;;;;;;5.90;5.40;;;;;;;31.07;40.28;97046.59;4908132;28;20288;-86
2023/09/16 10:24:41;;;;;;;5.35;4.93;;;;;;;31.45;39.51;97046.22;4908731;28;20147;-86
2023/09/16 10:27:14;;;;;;;5.15;4.75;;;;;;;31.53;39.78;97045.84;4904435;28;20198;-86
2023/09/16 10:29:42;;;;;;;5.90;5.50;;;;;;;31.57;39.77;97039.72;4921765;28;20701;-86
2023/09/16 10:32:07;;;;;;;4.82;4.53;;;;;;;31.38;39.07;97041.63;4924435;28;20725;-86
2023/09/16 10:34:32;;;;;;;5.13;4.63;;;;;;;31.54;40.20;97025.09;4927130;28;20084;-86
2023/09/16 10:36:58;;;;;;;4.45;4.15;;;;;;;32.12;38.55;97047.28;4914906;28;20264;-85
2023/09/16 10:39:24;;;;;;;4.25;3.85;;;;;;;32.47;37.25;97032.13;4896796;28;20199;-86
2023/09/16 10:41:51;;;;;;;4.93;4.53;;;;;;;32.66;37.31;97014.72;4931059;28;20586;-85
2023/09/16 10:44:16;;;;;;;4.60;4.30;;;;;;;32.88;36.52;97041.56;4908295;28;20616;-86
2023/09/16 10:46:43;;;;;;;4.13;3.83;;;;;;;33.08;35.80;97031.03;4900355;28;20208;-86
2023/09/16 10:49:08;;;;;;;4.75;4.35;;;;;;;32.90;35.77;97042.69;4929709;28;20522;-86
2023/09/16 10:51:39;;;;;;;4.20;3.90;;;;;;;32.87;36.73;97023.84;4921945;28;20252;-85
2023/09/16 10:54:28;;;;;;;4.35;4.05;;;;;;;33.01;34.59;97031.84;4902504;28;20264;-86
2023/09/16 10:56:56;;;;;;;4.60;4.28;;;;;;;33.08;34.23;97025.63;4923616;28;20540;-86
2023/09/16 10:59:25;;;;;;;4.15;3.85;;;;;;;33.14;33.92;97024.03;4906836;28;20162;-85
2023/09/16 11:01:55;;;;;;;4.65;4.35;;;;;;;33.14;33.55;97024.03;4912081;28;20299;-85
2023/09/16 11:04:21;;;;;;;4.10;3.80;;;;;;;32.78;35.22;97026.97;4900541;28;20171;-86
2023/09/16 11:06:50;;;;;;;3.95;3.75;;;;;;;32.60;36.00;97030.53;4891267;28;20577;-86
2023/09/16 11:09:24;;;;;;;3.92;3.63;;;;;;;32.88;33.94;97034.22;4901642;28;20224;-86
2023/09/16 11:11:50;;;;;;;3.83;3.63;;;;;;;33.14;33.73;97037.50;4913641;28;20361;-85
2023/09/16 11:14:17;;;;;;;4.28;3.97;;;;;;;33.17;34.07;97029.41;4908568;28;20131;-86
2023/09/16 11:17:05;;;;;;;4.03;3.63;;;;;;;33.14;34.01;97035.63;4913654;28;20082;-86
2023/09/16 11:19:30;;;;;;;4.43;4.07;;;;;;;33.18;34.21;97030.97;4937856;28;20236;-86
2023/09/16 11:21:57;;;;;;;3.95;3.65;;;;;;;32.98;33.38;97029.94;4955071;28;20581;-86
2023/09/16 11:24:27;;;;;;;4.00;3.70;;;;;;;32.73;34.41;97011.22;4920738;28;20192;-86
2023/09/16 11:26:53;;;;;;;3.70;3.50;;;;;;;32.77;35.10;97026.22;4920732;28;20107;-85
2023/09/16 11:29:19;;;;;;;4.40;4.10;;;;;;;32.97;34.17;97037.25;4938232;28;20615;-86
2023/09/16 11:31:45;;;;;;;3.92;3.63;;;;;;;33.01;34.17;97035.28;4925070;28;20052;-85